KDXR/DXR METAR and TAF weather

Enter ICAO airport designator
Station Type Date Time Source
KDXR METAR 2021/05/12 00:53 UTC NOAA

KDXR 120053Z 29003KT 10SM SCT120 13/M02 A3003 RMK AO2 SLP167 T01281022


Station Type Date Time Source
KDXR Decoded METAR 2021/05/12 00:53 UTC NOAA

DANBURY MUNICIPAL AIRPORT, CT, United States (KDXR) 41-22N 073-29W 139M
May 11, 2021 - 08:53 PM EDT / 2021.05.12 0053 UTC
Wind: from the WNW (290 degrees) at 3 MPH (3 KT):0
Visibility: 10 mile(s):0
Sky conditions: partly cloudy
Temperature: 55.0 F (12.8 C)
Dew Point: 28.0 F (-2.2 C)
Relative Humidity: 35%
Pressure (altimeter): 30.03 in. Hg (1016 hPa)
ob: KDXR 120053Z 29003KT 10SM SCT120 13/M02 A3003 RMK AO2 SLP167 T01281022
cycle: 1

Station Type Date Time Source
KDXR TAF UTC NOAA

Error!

Example: see airport list